Aviation Digital Data Service (ADDS)

Output produced by METARs form (0707 UTC 07 December 2022)
found at http://www.aviationweather.gov/metar/data/
 
METAR text: LSZA 070650Z VRB03KT CAVOK M02/M02 Q1013
Conditions at: LSZA (LUGANO (PVT/AUT), CH) observed 0650 UTC 07 December 2022
Temperature: -2.0°C (28°F)
Dewpoint: -2.0°C (28°F) [RH = 100%]
Pressure (altimeter): 29.91 inches Hg (1013.0 mb)
Winds: variable direction winds at 3 MPH (3 knots; 1.5 m/s)
Visibility: 6 or more miles (10+ km)
Ceiling: ceiling and visibility are OK
Clouds: unknown
Weather: no significant weather observed at this time

METAR text: LSZA 070620Z AUTO VRB02KT CAVOK M02/M02 Q1013
Conditions at: LSZA (LUGANO (PVT/AUT), CH) observed 0620 UTC 07 December 2022
Temperature: -2.0°C (28°F)
Dewpoint: -2.0°C (28°F) [RH = 100%]
Pressure (altimeter): 29.91 inches Hg (1013.0 mb)
Winds: variable direction winds at 2 MPH (2 knots; 1.0 m/s)
Visibility: 6 or more miles (10+ km)
Ceiling: ceiling and visibility are OK
Clouds: unknown
Weather: no significant weather observed at this time

METAR text: LSZA 070550Z AUTO VRB02KT 9999 NCD M02/M02 Q1013
Conditions at: LSZA (LUGANO (PVT/AUT), CH) observed 0550 UTC 07 December 2022
Temperature: -2.0°C (28°F)
Dewpoint: -2.0°C (28°F) [RH = 100%]
Pressure (altimeter): 29.91 inches Hg (1013.0 mb)
Winds: variable direction winds at 2 MPH (2 knots; 1.0 m/s)
Visibility: 6 or more miles (10+ km)
Ceiling: at least 12,000 feet AGL
Clouds: sky clear below 12,000 feet AGL
Weather: no significant weather observed at this time

METAR text: LSZA 070520Z AUTO VRB01KT 9999 NSC M02/M02 Q1013
Conditions at: LSZA (LUGANO (PVT/AUT), CH) observed 0520 UTC 07 December 2022
Temperature: -2.0°C (28°F)
Dewpoint: -2.0°C (28°F) [RH = 100%]
Pressure (altimeter): 29.91 inches Hg (1013.0 mb)
Winds: variable direction winds at 1 MPH (1 knots; 0.5 m/s)
Visibility: 6 or more miles (10+ km)
Ceiling: at least 12,000 feet AGL
Clouds: sky clear below 12,000 feet AGL
Weather: no significant weather observed at this time

METAR text: LSZA 070450Z AUTO VRB02KT 9999 NCD M01/M01 Q1013
Conditions at: LSZA (LUGANO (PVT/AUT), CH) observed 0450 UTC 07 December 2022
Temperature: -1.0°C (30°F)
Dewpoint: -1.0°C (30°F) [RH = 100%]
Pressure (altimeter): 29.91 inches Hg (1013.0 mb)
Winds: variable direction winds at 2 MPH (2 knots; 1.0 m/s)
Visibility: 6 or more miles (10+ km)
Ceiling: at least 12,000 feet AGL
Clouds: sky clear below 12,000 feet AGL
Weather: no significant weather observed at this time

METAR text: LSZA 070420Z AUTO VRB01KT 9999 NSC M01/M01 Q1013
Conditions at: LSZA (LUGANO (PVT/AUT), CH) observed 0420 UTC 07 December 2022
Temperature: -1.0°C (30°F)
Dewpoint: -1.0°C (30°F) [RH = 100%]
Pressure (altimeter): 29.91 inches Hg (1013.0 mb)
Winds: variable direction winds at 1 MPH (1 knots; 0.5 m/s)
Visibility: 6 or more miles (10+ km)
Ceiling: at least 12,000 feet AGL
Clouds: sky clear below 12,000 feet AGL
Weather: no significant weather observed at this time

Forecast for: LSZA (LUGANO (PVT/AUT), CH)
Text: TAF LSZA 070525Z 0706/0715 VRB02KT CAVOK
Forecast period: 0600 to 1500 UTC 07 December 2022
Forecast type: FROM: standard forecast or significant change
Winds: variable direction winds at 2 MPH (2 knots; 1.0 m/s)
Visibility: 6 or more miles (10+ km)
Ceiling: unknown
Clouds: missing
Weather: NSW  (no significant weather)